sensor_id;sensor_type;location;lat;lon;timestamp;pressure;altitude;pressure_sealevel;temperature;humidity
42691;BME280;28306;55.744;37.578;2023-03-13T00:03:39;98384.06;;;24.53;20.17
42691;BME280;28306;55.744;37.578;2023-03-13T00:06:05;98377.00;;;24.52;20.02
42691;BME280;28306;55.744;37.578;2023-03-13T00:08:30;98383.53;;;24.51;19.95
42691;BME280;28306;55.744;37.578;2023-03-13T00:10:56;98381.91;;;24.50;20.03
42691;BME280;28306;55.744;37.578;2023-03-13T00:13:21;98385.47;;;24.50;20.01
42691;BME280;28306;55.744;37.578;2023-03-13T00:15:47;98389.28;;;24.49;20.16
42691;BME280;28306;55.744;37.578;2023-03-13T00:18:12;98395.81;;;24.48;20.10
42691;BME280;28306;55.744;37.578;2023-03-13T00:20:38;98401.25;;;24.48;20.01
42691;BME280;28306;55.744;37.578;2023-03-13T00:23:03;98410.22;;;24.49;19.88
42691;BME280;28306;55.744;37.578;2023-03-13T00:25:29;98411.03;;;24.49;20.01
42691;BME280;28306;55.744;37.578;2023-03-13T00:27:54;98404.50;;;24.50;19.97
42691;BME280;28306;55.744;37.578;2023-03-13T00:30:20;98418.09;;;24.50;20.01
42691;BME280;28306;55.744;37.578;2023-03-13T00:32:45;98408.00;;;24.51;19.96
42691;BME280;28306;55.744;37.578;2023-03-13T00:35:12;98415.88;;;24.52;19.80
42691;BME280;28306;55.744;37.578;2023-03-13T00:37:37;98420.22;;;24.53;20.09
42691;BME280;28306;55.744;37.578;2023-03-13T00:40:04;98424.84;;;24.53;19.84
42691;BME280;28306;55.744;37.578;2023-03-13T00:42:29;98430.28;;;24.53;20.09
42691;BME280;28306;55.744;37.578;2023-03-13T00:44:55;98429.97;;;24.54;19.88
42691;BME280;28306;55.744;37.578;2023-03-13T00:47:22;98435.97;;;24.56;20.05
42691;BME280;28306;55.744;37.578;2023-03-13T00:49:47;98440.31;;;24.57;19.89
42691;BME280;28306;55.744;37.578;2023-03-13T00:52:13;98449.00;;;24.59;20.07
42691;BME280;28306;55.744;37.578;2023-03-13T00:54:39;98452.53;;;24.60;19.84
42691;BME280;28306;55.744;37.578;2023-03-13T00:57:05;98457.66;;;24.61;19.88
42691;BME280;28306;55.744;37.578;2023-03-13T00:59:31;98460.38;;;24.61;20.05
42691;BME280;28306;55.744;37.578;2023-03-13T01:01:57;98460.38;;;24.61;19.80
42691;BME280;28306;55.744;37.578;2023-03-13T01:04:22;98463.09;;;24.61;19.84
42691;BME280;28306;55.744;37.578;2023-03-13T01:06:48;98469.88;;;24.64;19.85
42691;BME280;28306;55.744;37.578;2023-03-13T01:09:14;98482.34;;;24.65;19.91
42691;BME280;28306;55.744;37.578;2023-03-13T01:11:41;98477.75;;;24.66;19.90
42691;BME280;28306;55.744;37.578;2023-03-13T01:14:17;98487.78;;;24.65;20.04
42691;BME280;28306;55.744;37.578;2023-03-13T01:16:42;98486.72;;;24.66;19.93
42691;BME280;28306;55.744;37.578;2023-03-13T01:19:12;98497.28;;;24.68;19.80
42691;BME280;28306;55.744;37.578;2023-03-13T01:21:38;98510.59;;;24.69;19.76
42691;BME280;28306;55.744;37.578;2023-03-13T01:24:04;98505.97;;;24.70;19.73
42691;BME280;28306;55.744;37.578;2023-03-13T01:26:29;98505.97;;;24.70;19.91
42691;BME280;28306;55.744;37.578;2023-03-13T01:28:55;98517.63;;;24.70;20.05
42691;BME280;28306;55.744;37.578;2023-03-13T01:31:25;98527.44;;;24.71;19.91
42691;BME280;28306;55.744;37.578;2023-03-13T01:33:52;98530.94;;;24.72;19.96
42691;BME280;28306;55.744;37.578;2023-03-13T01:36:18;98531.50;;;24.74;20.07
42691;BME280;28306;55.744;37.578;2023-03-13T01:38:47;98539.66;;;24.74;19.95
42691;BME280;28306;55.744;37.578;2023-03-13T01:41:12;98547.81;;;24.74;19.91
42691;BME280;28306;55.744;37.578;2023-03-13T01:43:38;98546.97;;;24.73;20.03
42691;BME280;28306;55.744;37.578;2023-03-13T01:53:46;98570.09;;;24.76;19.83
42691;BME280;28306;55.744;37.578;2023-03-13T01:56:16;98575.53;;;24.76;19.93
42691;BME280;28306;55.744;37.578;2023-03-13T01:58:42;98588.03;;;24.77;19.79
42691;BME280;28306;55.744;37.578;2023-03-13T02:01:10;98582.06;;;24.75;19.84
42691;BME280;28306;55.744;37.578;2023-03-13T02:03:36;98586.41;;;24.76;19.91
42691;BME280;28306;55.744;37.578;2023-03-13T02:06:02;98589.13;;;24.76;19.68
42691;BME280;28306;55.744;37.578;2023-03-13T02:08:30;98602.72;;;24.76;19.93
42691;BME280;28306;55.744;37.578;2023-03-13T02:11:19;98607.06;;;24.77;19.97
42691;BME280;28306;55.744;37.578;2023-03-13T02:13:42;98608.16;;;24.76;19.69
42691;BME280;28306;55.744;37.578;2023-03-13T02:16:08;98613.88;;;24.74;19.75
42691;BME280;28306;55.744;37.578;2023-03-13T02:18:35;98620.13;;;24.75;19.87
42691;BME280;28306;55.744;37.578;2023-03-13T02:21:04;98620.13;;;24.75;19.80
42691;BME280;28306;55.744;37.578;2023-03-13T02:23:32;98620.13;;;24.75;19.74
42691;BME280;28306;55.744;37.578;2023-03-13T02:26:00;98631.56;;;24.77;19.60
42691;BME280;28306;55.744;37.578;2023-03-13T02:28:32;98645.44;;;24.75;19.69
42691;BME280;28306;55.744;37.578;2023-03-13T02:31:01;98644.63;;;24.75;19.91
42691;BME280;28306;55.744;37.578;2023-03-13T02:33:29;98643.81;;;24.74;19.88
42691;BME280;28306;55.744;37.578;2023-03-13T02:35:55;98646.25;;;24.76;19.57
42691;BME280;28306;55.744;37.578;2023-03-13T02:38:23;98656.31;;;24.75;19.90
42691;BME280;28306;55.744;37.578;2023-03-13T02:40:50;98656.31;;;24.75;19.69
42691;BME280;28306;55.744;37.578;2023-03-13T02:43:20;98660.94;;;24.75;19.57
42691;BME280;28306;55.744;37.578;2023-03-13T02:46:05;98668.81;;;24.76;19.63
42691;BME280;28306;55.744;37.578;2023-03-13T02:48:34;98662.56;;;24.76;19.66
42691;BME280;28306;55.744;37.578;2023-03-13T02:51:02;98668.00;;;24.76;19.61
42691;BME280;28306;55.744;37.578;2023-03-13T02:53:29;98684.84;;;24.78;19.69
42691;BME280;28306;55.744;37.578;2023-03-13T02:55:55;98677.78;;;24.77;19.66
42691;BME280;28306;55.744;37.578;2023-03-13T02:58:23;98693.00;;;24.78;19.51
42691;BME280;28306;55.744;37.578;2023-03-13T03:00:49;98692.50;;;24.76;19.50
42691;BME280;28306;55.744;37.578;2023-03-13T03:03:15;98695.22;;;24.76;19.51
42691;BME280;28306;55.744;37.578;2023-03-13T03:05:41;98703.38;;;24.76;19.83
42691;BME280;28306;55.744;37.578;2023-03-13T03:08:07;98694.41;;;24.75;19.60
42691;BME280;28306;55.744;37.578;2023-03-13T03:10:34;98701.44;;;24.76;19.61
42691;BME280;28306;55.744;37.578;2023-03-13T03:13:00;98708.81;;;24.76;19.70
42691;BME280;28306;55.744;37.578;2023-03-13T03:15:25;98713.16;;;24.77;19.63
42691;BME280;28306;55.744;37.578;2023-03-13T03:17:51;98713.16;;;24.77;19.58
42691;BME280;28306;55.744;37.578;2023-03-13T03:20:16;98715.88;;;24.77;19.74
42691;BME280;28306;55.744;37.578;2023-03-13T03:22:42;98721.31;;;24.77;19.51
42691;BME280;28306;55.744;37.578;2023-03-13T03:25:07;98733.81;;;24.78;19.69
42691;BME280;28306;55.744;37.578;2023-03-13T03:27:33;98736.81;;;24.76;19.63
42691;BME280;28306;55.744;37.578;2023-03-13T03:30:05;98736.00;;;24.76;19.47
42691;BME280;28306;55.744;37.578;2023-03-13T03:32:33;98741.97;;;24.78;19.76
42691;BME280;28306;55.744;37.578;2023-03-13T03:34:58;98748.25;;;24.78;19.69
42691;BME280;28306;55.744;37.578;2023-03-13T03:37:24;98753.97;;;24.77;19.47
42691;BME280;28306;55.744;37.578;2023-03-13T03:39:49;98756.69;;;24.77;19.82
42691;BME280;28306;55.744;37.578;2023-03-13T03:42:15;98755.84;;;24.76;19.68
42691;BME280;28306;55.744;37.578;2023-03-13T03:44:40;98757.50;;;24.77;19.50
42691;BME280;28306;55.744;37.578;2023-03-13T03:47:08;98759.41;;;24.77;19.63
42691;BME280;28306;55.744;37.578;2023-03-13T03:49:38;98761.84;;;24.78;19.44
42691;BME280;28306;55.744;37.578;2023-03-13T03:52:04;98778.97;;;24.79;19.84
42691;BME280;28306;55.744;37.578;2023-03-13T03:54:34;98773.53;;;24.79;19.55
42691;BME280;28306;55.744;37.578;2023-03-13T03:57:01;98773.81;;;24.77;19.67
42691;BME280;28306;55.744;37.578;2023-03-13T03:59:26;98778.44;;;24.77;19.36
42691;BME280;28306;55.744;37.578;2023-03-13T04:02:10;98783.59;;;24.78;19.69
42691;BME280;28306;55.744;37.578;2023-03-13T04:04:36;98784.69;;;24.77;19.64
42691;BME280;28306;55.744;37.578;2023-03-13T04:07:05;98795.84;;;24.76;19.66
42691;BME280;28306;55.744;37.578;2023-03-13T04:09:32;98792.34;;;24.75;19.56
42691;BME280;28306;55.744;37.578;2023-03-13T04:11:59;98799.38;;;24.76;19.69
42691;BME280;28306;55.744;37.578;2023-03-13T04:14:25;98806.75;;;24.76;19.48
42691;BME280;28306;55.744;37.578;2023-03-13T04:16:51;98804.81;;;24.76;19.54
42691;BME280;28306;55.744;37.578;2023-03-13T04:19:17;98816.53;;;24.77;19.56
42691;BME280;28306;55.744;37.578;2023-03-13T04:21:43;98817.34;;;24.77;19.46
42691;BME280;28306;55.744;37.578;2023-03-13T04:24:12;98823.56;;;24.78;19.81
42691;BME280;28306;55.744;37.578;2023-03-13T04:26:40;98821.97;;;24.77;19.43
42691;BME280;28306;55.744;37.578;2023-03-13T04:29:05;98828.22;;;24.77;19.46
42691;BME280;28306;55.744;37.578;2023-03-13T04:32:00;98830.94;;;24.77;19.60
42691;BME280;28306;55.744;37.578;2023-03-13T04:34:35;98835.28;;;24.78;19.68
42691;BME280;28306;55.744;37.578;2023-03-13T04:37:19;98847.78;;;24.79;19.67
42691;BME280;28306;55.744;37.578;2023-03-13T04:40:03;98852.41;;;24.79;19.66
42691;BME280;28306;55.744;37.578;2023-03-13T04:42:32;98862.22;;;24.80;19.63
42691;BME280;28306;55.744;37.578;2023-03-13T04:45:16;98867.38;;;24.81;19.47
42691;BME280;28306;55.744;37.578;2023-03-13T04:47:56;98874.41;;;24.82;19.50
42691;BME280;28306;55.744;37.578;2023-03-13T04:50:34;98868.69;;;24.84;19.57
42691;BME280;28306;55.744;37.578;2023-03-13T04:53:21;98877.13;;;24.88;19.55
42691;BME280;28306;55.744;37.578;2023-03-13T04:56:20;98880.66;;;24.88;19.43
42691;BME280;28306;55.744;37.578;2023-03-13T04:59:10;98880.94;;;24.87;19.60
42691;BME280;28306;55.744;37.578;2023-03-13T05:01:56;98895.06;;;24.89;19.59
42691;BME280;28306;55.744;37.578;2023-03-13T05:04:36;98896.97;;;24.88;19.31
42691;BME280;28306;55.744;37.578;2023-03-13T05:07:20;98897.78;;;24.89;19.50
42691;BME280;28306;55.744;37.578;2023-03-13T05:09:49;98895.88;;;24.89;19.47
42691;BME280;28306;55.744;37.578;2023-03-13T05:12:33;98908.38;;;24.90;19.71
42691;BME280;28306;55.744;37.578;2023-03-13T05:15:24;98910.00;;;24.91;19.32
42691;BME280;28306;55.744;37.578;2023-03-13T05:18:25;98917.38;;;24.91;19.54
42691;BME280;28306;55.744;37.578;2023-03-13T05:21:17;98920.59;;;24.93;19.36
42691;BME280;28306;55.744;37.578;2023-03-13T05:24:18;98922.53;;;24.92;19.38
42691;BME280;28306;55.744;37.578;2023-03-13T05:27:02;98931.22;;;24.94;19.50
42691;BME280;28306;55.744;37.578;2023-03-13T05:29:41;98938.00;;;24.97;19.11
42691;BME280;28306;55.744;37.578;2023-03-13T05:32:33;98934.75;;;24.95;19.05
42691;BME280;28306;55.744;37.578;2023-03-13T05:35:24;98944.53;;;24.96;19.43
42691;BME280;28306;55.744;37.578;2023-03-13T05:38:11;98943.72;;;24.95;19.26
42691;BME280;28306;55.744;37.578;2023-03-13T05:40:56;98944.53;;;24.96;19.41
42691;BME280;28306;55.744;37.578;2023-03-13T05:43:40;98949.69;;;24.97;19.21
42691;BME280;28306;55.744;37.578;2023-03-13T05:46:32;98943.97;;;24.99;19.39
42691;BME280;28306;55.744;37.578;2023-03-13T05:49:23;98951.34;;;24.98;19.26
42691;BME280;28306;55.744;37.578;2023-03-13T05:52:01;98948.31;;;25.00;19.50
42691;BME280;28306;55.744;37.578;2023-03-13T05:54:46;98961.09;;;24.99;19.34
42691;BME280;28306;55.744;37.578;2023-03-13T05:57:31;98955.66;;;24.99;19.54
42691;BME280;28306;55.744;37.578;2023-03-13T06:00:10;98962.75;;;25.00;19.48
42691;BME280;28306;55.744;37.578;2023-03-13T06:02:38;98967.66;;;24.98;19.29
42691;BME280;28306;55.744;37.578;2023-03-13T06:05:06;98960.59;;;24.97;19.48
42691;BME280;28306;55.744;37.578;2023-03-13T06:07:31;98965.22;;;24.97;19.26
42691;BME280;28306;55.744;37.578;2023-03-13T06:09:57;98974.19;;;24.97;19.42
42691;BME280;28306;55.744;37.578;2023-03-13T06:12:22;98975.81;;;24.98;19.35
42691;BME280;28306;55.744;37.578;2023-03-13T06:14:48;98977.44;;;24.99;19.62
42691;BME280;28306;55.744;37.578;2023-03-13T06:17:24;98976.63;;;24.99;19.21
42691;BME280;28306;55.744;37.578;2023-03-13T06:19:50;98983.72;;;25.00;19.43
42691;BME280;28306;55.744;37.578;2023-03-13T06:22:16;98990.75;;;25.01;19.35
42691;BME280;28306;55.744;37.578;2023-03-13T06:24:41;98987.75;;;25.03;19.54
42691;BME280;28306;55.744;37.578;2023-03-13T06:27:08;98989.38;;;25.04;19.29
42691;BME280;28306;55.744;37.578;2023-03-13T06:29:34;98990.47;;;25.03;19.25
42691;BME280;28306;55.744;37.578;2023-03-13T06:31:59;98996.72;;;25.03;19.49
42691;BME280;28306;55.744;37.578;2023-03-13T06:34:25;99003.00;;;25.04;19.33
42691;BME280;28306;55.744;37.578;2023-03-13T06:36:50;99007.88;;;25.07;19.47
42691;BME280;28306;55.744;37.578;2023-03-13T06:39:16;99000.81;;;25.06;19.20
42691;BME280;28306;55.744;37.578;2023-03-13T06:41:41;99018.22;;;25.05;19.42
42691;BME280;28306;55.744;37.578;2023-03-13T06:44:07;99026.38;;;25.05;19.26
42691;BME280;28306;55.744;37.578;2023-03-13T06:46:32;99021.78;;;25.05;19.53
42691;BME280;28306;55.744;37.578;2023-03-13T06:48:57;99025.56;;;25.04;19.42
42691;BME280;28306;55.744;37.578;2023-03-13T06:51:23;99024.78;;;25.04;19.17
42691;BME280;28306;55.744;37.578;2023-03-13T06:53:50;99031.81;;;25.05;19.29
42691;BME280;28306;55.744;37.578;2023-03-13T06:56:16;99029.94;;;25.05;19.37
42691;BME280;28306;55.744;37.578;2023-03-13T06:58:45;99032.66;;;25.05;19.22
42691;BME280;28306;55.744;37.578;2023-03-13T07:01:12;99029.66;;;25.07;19.50
42691;BME280;28306;55.744;37.578;2023-03-13T07:03:38;99030.47;;;25.07;19.42
42691;BME280;28306;55.744;37.578;2023-03-13T07:06:05;99036.97;;;25.11;19.29
42691;BME280;28306;55.744;37.578;2023-03-13T07:08:31;99038.31;;;25.14;19.35
42691;BME280;28306;55.744;37.578;2023-03-13T07:10:58;99040.47;;;25.17;19.14
42691;BME280;28306;55.744;37.578;2023-03-13T07:13:24;99048.34;;;25.18;19.14
42691;BME280;28306;55.744;37.578;2023-03-13T07:15:49;99055.72;;;25.18;19.01
42691;BME280;28306;55.744;37.578;2023-03-13T07:18:15;99053.00;;;25.18;19.34
42691;BME280;28306;55.744;37.578;2023-03-13T07:20:41;99057.34;;;25.19;19.21
42691;BME280;28306;55.744;37.578;2023-03-13T07:23:06;99062.22;;;25.22;19.10
42691;BME280;28306;55.744;37.578;2023-03-13T07:25:32;99070.91;;;25.24;19.36
42691;BME280;28306;55.744;37.578;2023-03-13T07:27:57;99077.16;;;25.25;19.10
42691;BME280;28306;55.744;37.578;2023-03-13T07:30:25;99080.19;;;25.28;19.18
42691;BME280;28306;55.744;37.578;2023-03-13T07:32:50;99081.25;;;25.32;19.06
42691;BME280;28306;55.744;37.578;2023-03-13T07:35:16;99090.25;;;25.33;19.00
42691;BME280;28306;55.744;37.578;2023-03-13T07:37:41;99096.50;;;25.33;19.06
42691;BME280;28306;55.744;37.578;2023-03-13T07:40:07;99098.13;;;25.34;19.19
42691;BME280;28306;55.744;37.578;2023-03-13T07:42:33;99104.91;;;25.37;19.06
42691;BME280;28306;55.744;37.578;2023-03-13T07:44:59;99111.16;;;25.38;19.13
42691;BME280;28306;55.744;37.578;2023-03-13T07:47:24;99109.25;;;25.38;18.93
42691;BME280;28306;55.744;37.578;2023-03-13T07:49:49;99113.59;;;25.39;18.92
42691;BME280;28306;55.744;37.578;2023-03-13T07:52:15;99124.50;;;25.39;18.98
42691;BME280;28306;55.744;37.578;2023-03-13T07:54:41;99115.78;;;25.37;19.08
42691;BME280;28306;55.744;37.578;2023-03-13T07:57:07;99119.31;;;25.38;19.16
42691;BME280;28306;55.744;37.578;2023-03-13T07:59:32;99120.16;;;25.38;19.19
42691;BME280;28306;55.744;37.578;2023-03-13T08:01:58;99120.16;;;25.38;19.02
42691;BME280;28306;55.744;37.578;2023-03-13T08:04:23;99114.72;;;25.38;19.09
42691;BME280;28306;55.744;37.578;2023-03-13T08:06:49;99116.31;;;25.39;19.19
42691;BME280;28306;55.744;37.578;2023-03-13T08:09:15;99119.88;;;25.40;18.94
42691;BME280;28306;55.744;37.578;2023-03-13T08:11:41;99133.50;;;25.40;19.02
42691;BME280;28306;55.744;37.578;2023-03-13T08:14:08;99120.69;;;25.40;19.17
42691;BME280;28306;55.744;37.578;2023-03-13T08:16:34;99122.84;;;25.43;19.16
42691;BME280;28306;55.744;37.578;2023-03-13T08:19:00;99131.81;;;25.44;19.20
42691;BME280;28306;55.744;37.578;2023-03-13T08:21:28;99124.19;;;25.46;18.88
42691;BME280;28306;55.744;37.578;2023-03-13T08:23:55;99128.53;;;25.47;18.80
42691;BME280;28306;55.744;37.578;2023-03-13T08:26:21;99128.53;;;25.47;18.86
42691;BME280;28306;55.744;37.578;2023-03-13T08:28:50;99128.00;;;25.45;19.00
42691;BME280;28306;55.744;37.578;2023-03-13T08:31:17;99139.97;;;25.44;19.05
42691;BME280;28306;55.744;37.578;2023-03-13T08:33:43;99134.00;;;25.42;19.02
42691;BME280;28306;55.744;37.578;2023-03-13T08:38:37;99137.03;;;25.40;19.05
42691;BME280;28306;55.744;37.578;2023-03-13T08:41:03;99141.66;;;25.40;19.11
42691;BME280;28306;55.744;37.578;2023-03-13T08:43:28;99140.81;;;25.39;19.22
42691;BME280;28306;55.744;37.578;2023-03-13T08:45:54;99146.28;;;25.39;19.06
42691;BME280;28306;55.744;37.578;2023-03-13T08:48:20;99155.81;;;25.42;19.25
42691;BME280;28306;55.744;37.578;2023-03-13T08:50:46;99145.44;;;25.44;19.23
42691;BME280;28306;55.744;37.578;2023-03-13T08:53:11;99160.94;;;25.48;19.49
42691;BME280;28306;55.744;37.578;2023-03-13T08:55:37;99172.09;;;25.52;19.51
42691;BME280;28306;55.744;37.578;2023-03-13T08:58:02;99169.63;;;25.56;19.22
42691;BME280;28306;55.744;37.578;2023-03-13T09:00:28;99174.50;;;25.59;19.55
42691;BME280;28306;55.744;37.578;2023-03-13T09:02:55;99170.69;;;25.60;19.35
42691;BME280;28306;55.744;37.578;2023-03-13T09:05:21;99186.75;;;25.61;19.60
42691;BME280;28306;55.744;37.578;2023-03-13T09:07:46;99183.75;;;25.63;19.48
42691;BME280;28306;55.744;37.578;2023-03-13T09:10:12;99194.88;;;25.66;19.42
42691;BME280;28306;55.744;37.578;2023-03-13T09:12:37;99194.09;;;25.66;19.57
42691;BME280;28306;55.744;37.578;2023-03-13T09:15:03;99200.63;;;25.65;19.39
42691;BME280;28306;55.744;37.578;2023-03-13T09:17:28;99199.53;;;25.66;19.51
42691;BME280;28306;55.744;37.578;2023-03-13T09:19:54;99201.16;;;25.67;19.44
42691;BME280;28306;55.744;37.578;2023-03-13T09:22:19;99199.25;;;25.67;19.38
42691;BME280;28306;55.744;37.578;2023-03-13T09:24:45;99201.66;;;25.69;19.51
42691;BME280;28306;55.744;37.578;2023-03-13T09:27:10;99198.13;;;25.68;19.57
42691;BME280;28306;55.744;37.578;2023-03-13T09:29:36;99213.13;;;25.71;19.59
42691;BME280;28306;55.744;37.578;2023-03-13T09:32:04;99201.09;;;25.72;19.52
42691;BME280;28306;55.744;37.578;2023-03-13T09:34:29;99206.56;;;25.72;19.59
42691;BME280;28306;55.744;37.578;2023-03-13T09:36:56;99212.84;;;25.72;19.73
42691;BME280;28306;55.744;37.578;2023-03-13T09:39:21;99219.09;;;25.73;19.64
42691;BME280;28306;55.744;37.578;2023-03-13T09:44:20;99216.09;;;25.75;19.58
42691;BME280;28306;55.744;37.578;2023-03-13T09:50:00;99224.78;;;25.77;19.76
42691;BME280;28306;55.744;37.578;2023-03-13T09:52:22;99229.44;;;25.76;19.52
42691;BME280;28306;55.744;37.578;2023-03-13T09:55:31;99228.63;;;25.76;19.68
42691;BME280;28306;55.744;37.578;2023-03-13T09:57:39;99221.53;;;25.75;19.58
42691;BME280;28306;55.744;37.578;2023-03-13T10:00:10;99226.47;;;25.72;19.84
42691;BME280;28306;55.744;37.578;2023-03-13T10:02:37;99238.44;;;25.71;19.67
42691;BME280;28306;55.744;37.578;2023-03-13T10:07:29;99240.09;;;25.72;19.70
42691;BME280;28306;55.744;37.578;2023-03-13T10:09:54;99246.63;;;25.71;19.82
42691;BME280;28306;55.744;37.578;2023-03-13T10:12:22;99240.13;;;25.67;19.88
42691;BME280;28306;55.744;37.578;2023-03-13T10:14:52;99252.38;;;25.65;19.98
42691;BME280;28306;55.744;37.578;2023-03-13T10:19:46;99254.03;;;25.61;19.89
42691;BME280;28306;55.744;37.578;2023-03-13T10:22:18;99258.16;;;25.58;19.88
42691;BME280;28306;55.744;37.578;2023-03-13T10:24:54;99256.50;;;25.57;19.87
42691;BME280;28306;55.744;37.578;2023-03-13T10:27:21;99258.16;;;25.58;19.87
42691;BME280;28306;55.744;37.578;2023-03-13T10:29:46;99260.03;;;25.58;19.87
42691;BME280;28306;55.744;37.578;2023-03-13T10:32:13;99264.69;;;25.57;19.74
42691;BME280;28306;55.744;37.578;2023-03-13T10:37:11;99263.59;;;25.58;19.82
42691;BME280;28306;55.744;37.578;2023-03-13T10:39:38;99279.94;;;25.58;19.90
42691;BME280;28306;55.744;37.578;2023-03-13T10:42:10;99284.84;;;25.56;19.99
42691;BME280;28306;55.744;37.578;2023-03-13T10:44:36;99274.22;;;25.54;19.84
42691;BME280;28306;55.744;37.578;2023-03-13T10:47:02;99278.84;;;25.54;20.00
42691;BME280;28306;55.744;37.578;2023-03-13T10:49:28;99286.50;;;25.52;20.07
42691;BME280;28306;55.744;37.578;2023-03-13T10:51:58;99295.75;;;25.51;19.92
42691;BME280;28306;55.744;37.578;2023-03-13T10:54:34;99293.31;;;25.49;19.92
42691;BME280;28306;55.744;37.578;2023-03-13T10:59:43;99316.19;;;25.48;20.05
42691;BME280;28306;55.744;37.578;2023-03-13T11:04:43;99313.19;;;25.50;19.71
42691;BME280;28306;55.744;37.578;2023-03-13T11:07:15;99309.63;;;25.54;19.67
42691;BME280;28306;55.744;37.578;2023-03-13T11:09:41;99318.88;;;25.59;19.69
42691;BME280;28306;55.744;37.578;2023-03-13T11:12:16;99315.34;;;25.58;19.61
42691;BME280;28306;55.744;37.578;2023-03-13T11:14:41;99329.78;;;25.59;19.69
42691;BME280;28306;55.744;37.578;2023-03-13T11:32:37;99349.66;;;25.64;19.59
42691;BME280;28306;55.744;37.578;2023-03-13T11:35:16;99350.19;;;25.66;19.33
42691;BME280;28306;55.744;37.578;2023-03-13T11:37:44;99362.72;;;25.67;19.33
42691;BME280;28306;55.744;37.578;2023-03-13T11:40:20;99369.78;;;25.68;19.24
42691;BME280;28306;55.744;37.578;2023-03-13T11:43:08;99367.59;;;25.70;19.52
42691;BME280;28306;55.744;37.578;2023-03-13T11:48:24;99369.22;;;25.77;19.31
42691;BME280;28306;55.744;37.578;2023-03-13T11:51:05;99365.41;;;25.78;19.33
42691;BME280;28306;55.744;37.578;2023-03-13T12:01:08;99383.63;;;25.87;19.16
42691;BME280;28306;55.744;37.578;2023-03-13T12:03:37;99400.53;;;25.89;18.99
42691;BME280;28306;55.744;37.578;2023-03-13T12:06:04;99401.88;;;25.92;18.95
42691;BME280;28306;55.744;37.578;2023-03-13T12:08:44;99402.97;;;25.91;19.05
42691;BME280;28306;55.744;37.578;2023-03-13T12:11:17;99396.44;;;25.87;18.88
42691;BME280;28306;55.744;37.578;2023-03-13T12:13:50;99389.38;;;25.81;19.24
42691;BME280;28306;55.744;37.578;2023-03-13T12:16:20;99390.72;;;25.78;18.91
42691;BME280;28306;55.744;37.578;2023-03-13T12:18:48;99385.84;;;25.75;19.06
42691;BME280;28306;55.744;37.578;2023-03-13T12:26:36;99404.13;;;25.69;19.30
42691;BME280;28306;55.744;37.578;2023-03-13T12:29:08;99397.03;;;25.68;19.14
42691;BME280;28306;55.744;37.578;2023-03-13T12:31:41;99406.31;;;25.67;19.09
42691;BME280;28306;55.744;37.578;2023-03-13T12:34:13;99404.94;;;25.70;19.45
42691;BME280;28306;55.744;37.578;2023-03-13T12:41:39;99415.25;;;25.78;19.32
42691;BME280;28306;55.744;37.578;2023-03-13T12:44:11;99410.38;;;25.80;19.04
42691;BME280;28306;55.744;37.578;2023-03-13T12:46:44;99415.53;;;25.82;19.23
42691;BME280;28306;55.744;37.578;2023-03-13T13:00:10;99427.28;;;25.77;19.06
42691;BME280;28306;55.744;37.578;2023-03-13T13:02:20;99434.34;;;25.78;18.98
42691;BME280;28306;55.744;37.578;2023-03-13T13:04:47;99438.97;;;25.78;19.10
42691;BME280;28306;55.744;37.578;2023-03-13T13:07:32;99429.16;;;25.82;18.97
42691;BME280;28306;55.744;37.578;2023-03-13T13:12:27;99432.69;;;25.87;19.24
42691;BME280;28306;55.744;37.578;2023-03-13T13:14:54;99440.56;;;25.89;19.00
42691;BME280;28306;55.744;37.578;2023-03-13T13:17:29;99437.03;;;25.88;18.97
42691;BME280;28306;55.744;37.578;2023-03-13T13:19:57;99447.13;;;25.88;19.01
42691;BME280;28306;55.744;37.578;2023-03-13T13:30:01;99453.09;;;25.95;19.34
42691;BME280;28306;55.744;37.578;2023-03-13T13:32:35;99454.50;;;25.93;19.07
42691;BME280;28306;55.744;37.578;2023-03-13T13:37:26;99462.13;;;25.85;19.36
42691;BME280;28306;55.744;37.578;2023-03-13T13:39:53;99463.22;;;25.84;19.37
42691;BME280;28306;55.744;37.578;2023-03-13T13:47:41;99463.22;;;25.79;19.17
42691;BME280;28306;55.744;37.578;2023-03-13T13:50:20;99463.47;;;25.83;18.98
42691;BME280;28306;55.744;37.578;2023-03-13T13:52:47;99467.03;;;25.88;19.16
42691;BME280;28306;55.744;37.578;2023-03-13T13:58:03;99474.91;;;25.95;19.19
42691;BME280;28306;55.744;37.578;2023-03-13T14:00:38;99479.81;;;25.93;19.09
42691;BME280;28306;55.744;37.578;2023-03-13T14:03:15;99469.19;;;25.92;19.09
42691;BME280;28306;55.744;37.578;2023-03-13T14:05:42;99485.03;;;25.89;19.07
42691;BME280;28306;55.744;37.578;2023-03-13T14:08:24;99477.13;;;25.88;19.13
42691;BME280;28306;55.744;37.578;2023-03-13T14:11:15;99490.19;;;25.86;18.97
42691;BME280;28306;55.744;37.578;2023-03-13T14:13:44;99488.84;;;25.83;19.14
42691;BME280;28306;55.744;37.578;2023-03-13T14:16:30;99484.75;;;25.81;19.08
42691;BME280;28306;55.744;37.578;2023-03-13T14:18:55;99488.56;;;25.80;19.17
42691;BME280;28306;55.744;37.578;2023-03-13T14:21:24;99489.94;;;25.77;19.20
42691;BME280;28306;55.744;37.578;2023-03-13T14:23:51;99492.94;;;25.76;19.15
42691;BME280;28306;55.744;37.578;2023-03-13T14:26:21;99501.13;;;25.76;19.24
42691;BME280;28306;55.744;37.578;2023-03-13T14:28:48;99495.09;;;25.73;19.33
42691;BME280;28306;55.744;37.578;2023-03-13T14:31:48;99501.66;;;25.72;19.26
42691;BME280;28306;55.744;37.578;2023-03-13T14:34:06;99501.66;;;25.72;19.31
42691;BME280;28306;55.744;37.578;2023-03-13T14:39:11;99507.13;;;25.72;19.16
42691;BME280;28306;55.744;37.578;2023-03-13T14:41:41;99509.00;;;25.72;19.23
42691;BME280;28306;55.744;37.578;2023-03-13T14:44:22;99510.13;;;25.71;19.49